KPKD

Details ICAO KPKD
Name PARK RAPIDS MUNI KONSHOK FLD
Region United States
Timezone America/Chicago (UTC-6.0)
Plans Departing 0
Arriving 0
Stats Elevation 1,443 ft / 440 m (AMSL)
Location 46.900307° -95.073037°
Runways 2
Magnetic Variation 1.587° E
Sunrise 2016-12-02 13:48:15 UTC / 2016-12-02 07:48:15 Local
Sunset 2016-12-02 22:34:37 UTC / 2016-12-02 16:34:37 Local
Advertisement - Login to hide

Runways

ID Width Length Bearing (true) Bearing (mag) Surface Threshold Offset Overrun Length
13 100 ft / 30 m 5,491 ft / 1,674 m 135.15° 133.56° Asphalt 0 ft / 0 m 0 ft / 0 m
17 140 ft / 43 m 3,035 ft / 925 m 180.01° 178.42° Grass 0 ft / 0 m 0 ft / 0 m
31 100 ft / 30 m 5,491 ft / 1,674 m 315.16° 313.57° Asphalt 0 ft / 0 m 0 ft / 0 m
35 140 ft / 43 m 3,035 ft / 925 m 0.01° 358.42° Grass 0 ft / 0 m 0 ft / 0 m

Approach Navaids

Runway Type Ident Frequency Range Bearing (true) Bearing (mag) Slope Elevation
31 Localiser IPKD 110.90 MHz 18 nm / 33 km 315.19° 313.61° - 1,443 ft / 440 m (AMSL)
31 Glidescope IPKD 110.90 MHz 10 nm / 19 km 315.00° 313.41° 3.00° 1,443 ft / 440 m (AMSL)

Map

Weather

Temperature
Clouds and Precipitation
Forecast for 2016-12-03 06:00 UTC. Updated an hour ago
Winds

METAR

KPKD 030353Z AUTO 31006KT 10SM OVC018 M04/M08 A3025

TAF

Not found

Frequencies

Unicom 123.00 MHz CTAF/UNICOM
Warning: Do not use this data for real-world aviation or navigation. No guarantee of current accuracy is given.